Time;durP1;ratioP1;P1;durP2;ratioP2;P2;SDS_P1;SDS_P2;PMS_P1;PMS_P2;Temp;Humidity;BMP_temperature;BMP_pressure;BME280_temperature;BME280_humidity;BME280_pressure;Samples;Min_cycle;Max_cycle;Signal;HPM_P1;HPM_P2
2022/09/26 00:01:42;;;;;;;22.17;17.85;;;13.30;99.90;;;;;;5051296;28;20209;-82
2022/09/26 00:04:17;;;;;;;18.15;16.27;;;13.30;99.90;;;;;;5051419;28;20206;-82
2022/09/26 00:06:50;;;;;;;16.83;15.25;;;13.30;99.90;;;;;;5051377;28;20274;-82
2022/09/26 00:09:19;;;;;;;17.63;16.00;;;13.20;99.90;;;;;;5050690;28;20228;-82
2022/09/26 00:11:47;;;;;;;16.77;15.32;;;13.20;99.90;;;;;;5051216;28;20235;-82
2022/09/26 00:14:19;;;;;;;17.95;16.35;;;13.20;99.90;;;;;;5052038;28;20210;-82
2022/09/26 00:16:49;;;;;;;17.30;15.60;;;13.20;99.90;;;;;;5052928;28;20214;-82
2022/09/26 00:19:17;;;;;;;18.52;16.80;;;13.20;99.90;;;;;;5053268;28;20228;-81
2022/09/26 00:21:46;;;;;;;18.08;16.40;;;13.20;99.90;;;;;;5053251;28;20205;-82
2022/09/26 00:24:15;;;;;;;20.60;18.55;;;13.10;99.90;;;;;;5053058;28;20201;-81
2022/09/26 00:26:43;;;;;;;19.67;17.85;;;13.20;99.90;;;;;;5053372;28;20198;-84
2022/09/26 00:29:13;;;;;;;18.45;16.85;;;13.20;99.90;;;;;;5052858;28;20245;-81
2022/09/26 00:31:43;;;;;;;21.65;19.45;;;13.20;99.90;;;;;;5053127;28;20359;-82
2022/09/26 00:34:14;;;;;;;20.25;18.33;;;13.20;99.90;;;;;;5053126;28;20198;-82
2022/09/26 00:36:43;;;;;;;20.48;18.45;;;13.10;99.90;;;;;;5053261;28;20217;-82
2022/09/26 00:39:13;;;;;;;23.60;21.23;;;13.20;99.90;;;;;;5052847;28;20226;-82
2022/09/26 00:41:42;;;;;;;23.85;21.30;;;13.20;99.90;;;;;;5052854;28;20198;-82
2022/09/26 00:44:34;;;;;;;22.52;20.45;;;13.20;99.90;;;;;;5052586;28;20212;-82
2022/09/26 00:47:04;;;;;;;23.38;20.98;;;13.20;99.90;;;;;;5053109;28;20217;-82
2022/09/26 00:49:36;;;;;;;24.83;22.00;;;13.10;99.90;;;;;;5052601;28;20233;-82
2022/09/26 00:52:09;;;;;;;23.90;21.60;;;13.10;99.90;;;;;;5053248;28;20217;-82
2022/09/26 00:54:44;;;;;;;24.13;21.75;;;13.20;99.90;;;;;;5052717;28;20210;-82
2022/09/26 00:57:19;;;;;;;23.58;21.42;;;13.20;99.90;;;;;;5051994;28;20215;-83
2022/09/26 00:59:50;;;;;;;23.55;20.88;;;13.20;99.90;;;;;;5052482;28;20237;-82
2022/09/26 01:02:19;;;;;;;24.02;21.77;;;13.20;99.90;;;;;;5052887;28;20224;-82
2022/09/26 01:04:49;;;;;;;24.77;22.05;;;13.10;99.90;;;;;;5052516;28;20197;-82
2022/09/26 01:07:20;;;;;;;25.30;23.00;;;13.20;99.90;;;;;;5052621;28;20208;-82
2022/09/26 01:09:49;;;;;;;24.55;22.10;;;13.10;99.90;;;;;;5052539;28;20256;-82
2022/09/26 01:12:18;;;;;;;23.98;21.63;;;13.10;99.90;;;;;;5052617;28;20212;-82
2022/09/26 01:14:48;;;;;;;25.30;23.00;;;13.20;99.90;;;;;;5052928;28;20210;-82
2022/09/26 01:17:17;;;;;;;26.02;22.73;;;13.20;99.90;;;;;;5052538;28;20208;-83
2022/09/26 01:19:57;;;;;;;23.42;21.23;;;13.20;99.90;;;;;;5051995;28;20317;-83
2022/09/26 01:22:50;;;;;;;22.15;20.15;;;13.10;99.90;;;;;;5052485;28;20213;-82
2022/09/26 01:25:24;;;;;;;22.40;20.38;;;13.20;99.90;;;;;;5052385;28;20214;-83
2022/09/26 01:28:16;;;;;;;23.10;20.95;;;13.20;99.90;;;;;;5052649;28;20201;-81
2022/09/26 01:30:51;;;;;;;23.02;20.92;;;13.20;99.90;;;;;;5052129;28;20209;-81
2022/09/26 01:33:52;;;;;;;21.85;19.77;;;13.20;99.90;;;;;;5052252;28;20211;-81
2022/09/26 01:36:57;;;;;;;23.45;21.20;;;13.20;99.90;;;;;;5052355;28;20213;-82
2022/09/26 01:39:39;;;;;;;21.60;19.42;;;13.20;99.90;;;;;;5052076;28;20237;-82
2022/09/26 01:42:16;;;;;;;24.00;21.67;;;13.20;99.90;;;;;;5052410;28;20221;-81
2022/09/26 01:44:50;;;;;;;20.95;19.20;;;13.20;99.90;;;;;;5052504;28;20202;-81
2022/09/26 01:47:26;;;;;;;22.48;20.27;;;13.20;99.90;;;;;;5052477;28;20217;-82
2022/09/26 01:50:00;;;;;;;19.00;17.25;;;13.20;99.90;;;;;;5052090;28;20235;-82
2022/09/26 01:52:35;;;;;;;19.73;17.73;;;13.20;99.90;;;;;;5052275;28;20240;-82
2022/09/26 01:55:10;;;;;;;18.75;17.13;;;13.20;99.90;;;;;;5052309;28;20212;-82
2022/09/26 01:57:42;;;;;;;20.23;18.33;;;13.20;99.90;;;;;;5052170;28;20216;-82
2022/09/26 02:00:12;;;;;;;18.80;17.02;;;13.20;99.90;;;;;;5052163;28;20232;-82
2022/09/26 02:02:43;;;;;;;17.65;16.15;;;13.20;99.90;;;;;;5052235;28;20208;-82
2022/09/26 02:05:18;;;;;;;17.52;15.82;;;13.20;99.90;;;;;;5052028;28;20291;-82
2022/09/26 02:07:52;;;;;;;17.42;15.77;;;13.20;99.90;;;;;;5052028;28;20216;-81
2022/09/26 02:10:26;;;;;;;15.95;14.32;;;13.20;99.90;;;;;;5055594;28;20498;-82
2022/09/26 02:13:00;;;;;;;14.07;12.82;;;13.20;99.90;;;;;;5055832;28;20205;-82
2022/09/26 02:15:31;;;;;;;13.13;12.02;;;13.20;99.90;;;;;;5055712;28;20202;-82
2022/09/26 02:18:07;;;;;;;11.73;10.75;;;13.20;99.90;;;;;;5055662;28;20210;-82
2022/09/26 02:20:38;;;;;;;14.23;12.15;;;13.20;99.90;;;;;;5055634;28;20222;-82
2022/09/26 02:23:07;;;;;;;11.68;10.57;;;13.20;99.90;;;;;;5055616;28;20216;-82
2022/09/26 02:25:36;;;;;;;10.15;9.27;;;13.20;99.90;;;;;;5055452;28;20209;-82
2022/09/26 02:28:05;;;;;;;10.38;9.48;;;13.20;99.90;;;;;;5055119;28;20241;-82
2022/09/26 02:30:33;;;;;;;12.95;9.73;;;13.20;99.90;;;;;;5054764;28;20244;-82
2022/09/26 02:33:03;;;;;;;10.13;9.13;;;13.20;99.90;;;;;;5055843;28;20213;-82
2022/09/26 02:38:17;;;;;;;8.65;7.85;;;13.20;99.90;;;;;;5055036;28;20241;-82
2022/09/26 02:40:51;;;;;;;7.70;7.10;;;13.20;99.90;;;;;;5055338;28;20213;-82
2022/09/26 02:43:51;;;;;;;7.72;7.05;;;13.20;99.90;;;;;;5054481;28;20202;-81
2022/09/26 02:46:40;;;;;;;9.25;8.13;;;13.20;99.90;;;;;;5055237;28;20209;-82
2022/09/26 02:49:21;;;;;;;8.13;7.43;;;13.20;99.90;;;;;;5054689;28;20228;-82
2022/09/26 02:52:07;;;;;;;7.05;6.45;;;13.20;99.90;;;;;;5055095;28;20209;-82
2022/09/26 02:54:43;;;;;;;6.38;5.88;;;13.20;99.90;;;;;;5055238;28;20210;-81
2022/09/26 02:57:21;;;;;;;7.18;6.60;;;13.20;99.90;;;;;;5054893;28;20205;-80
2022/09/26 02:59:58;;;;;;;5.70;5.18;;;13.20;99.90;;;;;;5054564;28;20233;-82
2022/09/26 03:02:34;;;;;;;7.25;6.25;;;13.20;99.90;;;;;;5054476;28;20202;-81
2022/09/26 03:05:08;;;;;;;8.50;6.38;;;13.20;99.90;;;;;;5054641;28;20213;-81
2022/09/26 03:07:42;;;;;;;6.85;6.25;;;13.20;99.90;;;;;;5054927;28;20205;-81
2022/09/26 03:10:12;;;;;;;7.10;6.43;;;13.20;99.90;;;;;;5054351;28;20226;-82
2022/09/26 03:12:43;;;;;;;6.70;6.03;;;13.20;99.90;;;;;;5054860;28;20217;-83
2022/09/26 03:15:12;;;;;;;5.75;5.30;;;13.20;99.90;;;;;;5054566;28;20213;-81
2022/09/26 03:17:45;;;;;;;8.50;7.63;;;13.20;99.90;;;;;;5054294;28;20209;-82
2022/09/26 03:20:16;;;;;;;7.25;5.95;;;13.20;99.90;;;;;;5053659;28;20237;-82
2022/09/26 03:22:45;;;;;;;6.03;5.53;;;13.20;99.90;;;;;;5054482;28;20209;-81
2022/09/26 03:25:17;;;;;;;5.93;5.43;;;13.20;99.90;;;;;;5054501;28;20206;-81
2022/09/26 03:27:46;;;;;;;6.25;5.32;;;13.20;99.90;;;;;;5054318;28;20205;-81
2022/09/26 03:30:16;;;;;;;5.72;5.22;;;13.30;99.90;;;;;;5053844;28;20253;-81
2022/09/26 03:32:45;;;;;;;5.78;5.22;;;13.20;99.90;;;;;;5054087;28;20214;-82
2022/09/26 03:35:16;;;;;;;4.57;4.28;;;13.20;99.90;;;;;;5054184;28;20205;-83
2022/09/26 03:37:44;;;;;;;5.03;4.53;;;13.20;99.90;;;;;;5054224;28;20213;-82
2022/09/26 03:40:13;;;;;;;4.72;4.32;;;13.20;99.90;;;;;;5053574;28;20234;-81
2022/09/26 03:42:41;;;;;;;4.38;4.07;;;13.20;99.90;;;;;;5053596;28;20205;-82
2022/09/26 03:45:10;;;;;;;4.50;4.20;;;13.20;99.90;;;;;;5053866;28;20220;-81
2022/09/26 03:47:40;;;;;;;3.97;3.70;;;13.20;99.90;;;;;;5053997;28;20205;-81
2022/09/26 03:50:09;;;;;;;3.65;3.35;;;13.20;99.90;;;;;;5053413;28;20257;-82
2022/09/26 03:52:39;;;;;;;5.85;4.65;;;13.20;99.90;;;;;;5054120;28;20214;-82
2022/09/26 03:55:07;;;;;;;5.45;4.43;;;13.20;99.90;;;;;;5053652;28;20225;-81
2022/09/26 03:57:36;;;;;;;3.97;3.67;;;13.20;99.90;;;;;;5053525;28;20212;-82
2022/09/26 04:00:07;;;;;;;3.90;3.60;;;13.20;99.90;;;;;;5053262;28;20236;-81
2022/09/26 04:02:35;;;;;;;3.42;3.20;;;13.20;99.90;;;;;;5053721;28;20206;-82
2022/09/26 04:05:04;;;;;;;3.17;2.97;;;13.30;99.90;;;;;;5053503;28;20205;-81
2022/09/26 04:07:32;;;;;;;4.15;3.33;;;13.20;99.90;;;;;;5053351;28;20213;-82
2022/09/26 04:10:02;;;;;;;3.30;3.00;;;13.20;99.90;;;;;;5053241;28;20225;-81
2022/09/26 04:12:31;;;;;;;3.97;3.33;;;13.20;99.90;;;;;;5053555;28;20213;-83
2022/09/26 04:14:59;;;;;;;3.95;3.40;;;13.20;99.90;;;;;;5053470;28;20233;-81
2022/09/26 04:17:28;;;;;;;3.53;3.22;;;13.20;99.90;;;;;;5053443;28;20205;-81
2022/09/26 04:19:57;;;;;;;3.80;3.47;;;13.20;99.90;;;;;;5052886;28;20230;-81
2022/09/26 04:22:26;;;;;;;3.58;3.35;;;13.30;99.90;;;;;;5053307;28;20216;-81
2022/09/26 04:24:54;;;;;;;6.80;4.13;;;13.30;99.90;;;;;;5052923;28;20217;-81
2022/09/26 04:27:27;;;;;;;4.22;3.92;;;13.20;99.90;;;;;;5053038;28;20221;-81
2022/09/26 04:29:56;;;;;;;4.38;4.05;;;13.20;99.90;;;;;;5053229;28;20230;-81
2022/09/26 04:32:24;;;;;;;4.72;4.18;;;13.20;99.90;;;;;;5052510;28;20217;-82
2022/09/26 04:34:52;;;;;;;4.68;4.30;;;13.20;99.90;;;;;;5053307;28;20202;-81
2022/09/26 04:37:20;;;;;;;5.43;3.90;;;13.20;99.90;;;;;;5052797;28;20216;-81
2022/09/26 04:39:48;;;;;;;4.65;4.07;;;13.20;99.90;;;;;;5052886;28;20233;-80
2022/09/26 04:42:17;;;;;;;4.95;4.55;;;13.10;99.90;;;;;;5052414;28;20216;-82
2022/09/26 04:44:47;;;;;;;4.75;4.22;;;13.10;99.90;;;;;;5053059;28;20205;-81
2022/09/26 04:47:15;;;;;;;4.32;3.97;;;13.10;99.90;;;;;;5053009;28;20293;-81
2022/09/26 04:49:44;;;;;;;4.43;4.05;;;13.10;99.90;;;;;;5052651;28;20233;-81
2022/09/26 04:52:14;;;;;;;4.78;4.35;;;13.10;99.90;;;;;;5052917;28;20217;-81
2022/09/26 04:54:43;;;;;;;4.25;3.95;;;13.10;99.90;;;;;;5052628;28;20221;-81
2022/09/26 04:57:13;;;;;;;6.00;5.05;;;13.10;99.90;;;;;;5052932;28;20213;-81
2022/09/26 04:59:48;;;;;;;5.30;4.90;;;13.10;99.90;;;;;;5052339;28;20230;-82
2022/09/26 05:02:18;;;;;;;7.35;6.22;;;13.10;99.90;;;;;;5052410;28;20209;-82
2022/09/26 05:04:47;;;;;;;6.25;5.70;;;13.10;99.90;;;;;;5052692;28;20300;-81
2022/09/26 05:07:17;;;;;;;5.28;4.82;;;13.10;99.90;;;;;;5052505;28;20212;-82
2022/09/26 05:09:45;;;;;;;8.15;6.60;;;13.10;99.90;;;;;;5052448;28;20217;-82
2022/09/26 05:12:14;;;;;;;5.18;4.78;;;13.10;99.90;;;;;;5052689;28;20201;-81
2022/09/26 05:14:43;;;;;;;5.88;5.43;;;13.10;99.90;;;;;;5052486;28;20217;-82
2022/09/26 05:17:12;;;;;;;7.85;6.00;;;13.10;99.90;;;;;;5052381;28;20201;-81
2022/09/26 05:19:41;;;;;;;7.00;6.32;;;13.10;99.90;;;;;;5052055;28;20233;-81
2022/09/26 05:22:10;;;;;;;7.10;6.10;;;13.20;99.90;;;;;;5052656;28;20209;-82
2022/09/26 05:27:24;;;;;;;7.05;6.55;;;13.10;99.90;;;;;;5052350;28;20213;-81
2022/09/26 05:29:55;;;;;;;10.10;7.55;;;13.20;99.90;;;;;;5052170;28;20225;-82
2022/09/26 05:32:27;;;;;;;9.50;8.63;;;13.20;99.90;;;;;;5052259;28;20214;-82
2022/09/26 05:34:56;;;;;;;8.85;8.07;;;13.20;99.90;;;;;;5052622;28;20201;-81
2022/09/26 05:37:24;;;;;;;8.30;7.65;;;13.10;99.90;;;;;;5052613;28;20215;-81
2022/09/26 05:42:38;;;;;;;11.38;10.20;;;13.10;99.90;;;;;;5053177;28;20226;-81
2022/09/26 05:45:08;;;;;;;11.15;10.15;;;13.10;99.90;;;;;;5056025;28;20209;-82
2022/09/26 05:47:38;;;;;;;10.48;9.57;;;13.10;99.90;;;;;;5055952;28;20205;-82
2022/09/26 05:50:09;;;;;;;11.25;10.23;;;13.10;99.90;;;;;;5055972;28;20221;-81
2022/09/26 05:52:37;;;;;;;13.02;11.73;;;13.10;99.90;;;;;;5055991;28;20255;-82
2022/09/26 05:55:07;;;;;;;14.48;12.93;;;13.10;99.90;;;;;;5056304;28;20277;-82
2022/09/26 05:57:35;;;;;;;12.50;11.40;;;13.10;99.90;;;;;;5055969;28;20217;-82
2022/09/26 06:00:04;;;;;;;14.07;12.77;;;13.10;99.90;;;;;;5055691;28;20221;-82
2022/09/26 06:02:33;;;;;;;13.13;11.90;;;13.10;99.90;;;;;;5055762;28;20206;-82
2022/09/26 06:05:03;;;;;;;17.10;15.30;;;13.10;99.90;;;;;;5055917;28;20240;-82
2022/09/26 06:07:32;;;;;;;15.13;13.63;;;13.10;99.90;;;;;;5055832;28;20216;-82
2022/09/26 06:10:02;;;;;;;17.08;14.85;;;13.20;99.90;;;;;;5055535;28;20233;-82
2022/09/26 06:12:30;;;;;;;16.67;14.70;;;13.20;99.90;;;;;;5055900;28;20217;-81
2022/09/26 06:14:58;;;;;;;15.90;14.43;;;13.20;99.90;;;;;;5055776;28;20208;-83
2022/09/26 06:17:26;;;;;;;16.50;14.90;;;13.30;99.90;;;;;;5055883;28;20210;-82
2022/09/26 06:19:55;;;;;;;17.13;15.52;;;13.30;99.90;;;;;;5055065;28;20222;-82
2022/09/26 06:22:25;;;;;;;16.50;14.90;;;13.30;99.90;;;;;;5055232;28;20205;-82
2022/09/26 06:24:53;;;;;;;16.15;14.50;;;13.40;99.90;;;;;;5055399;28;20202;-82
2022/09/26 06:27:23;;;;;;;13.77;12.60;;;13.40;99.90;;;;;;5055453;28;20213;-83
2022/09/26 06:29:51;;;;;;;15.38;13.77;;;13.40;99.90;;;;;;5055051;28;20237;-82
2022/09/26 06:32:19;;;;;;;16.98;15.18;;;13.50;99.90;;;;;;5055294;28;20213;-82
2022/09/26 06:34:47;;;;;;;14.27;13.00;;;13.50;99.90;;;;;;5055173;28;20233;-82
2022/09/26 06:37:16;;;;;;;16.83;14.73;;;13.50;99.90;;;;;;5055069;28;20217;-82
2022/09/26 06:39:45;;;;;;;16.20;14.55;;;13.60;99.90;;;;;;5054750;28;20229;-82
2022/09/26 06:42:13;;;;;;;15.80;13.40;;;13.60;99.90;;;;;;5055007;28;20226;-82
2022/09/26 06:44:42;;;;;;;15.93;13.35;;;13.60;99.90;;;;;;5054963;28;20216;-82
2022/09/26 06:47:11;;;;;;;13.52;12.25;;;13.60;99.90;;;;;;5054965;28;20210;-82
2022/09/26 06:49:39;;;;;;;15.02;13.57;;;13.60;99.90;;;;;;5054702;28;20226;-82
2022/09/26 06:52:10;;;;;;;15.50;14.00;;;13.70;99.90;;;;;;5054998;28;20197;-82
2022/09/26 06:54:38;;;;;;;14.50;13.07;;;13.70;99.90;;;;;;5054235;28;20202;-82
2022/09/26 06:57:08;;;;;;;12.95;11.57;;;13.80;99.90;;;;;;5054830;28;20284;-82
2022/09/26 06:59:42;;;;;;;13.27;12.10;;;13.90;99.90;;;;;;5054644;28;20240;-82
2022/09/26 07:02:11;;;;;;;12.52;11.35;;;13.90;99.90;;;;;;5054595;28;20221;-82
2022/09/26 07:04:39;;;;;;;14.93;13.35;;;14.00;99.90;;;;;;5054507;28;20197;-81
2022/09/26 07:07:07;;;;;;;12.57;11.38;;;14.20;99.90;;;;;;5054768;28;20213;-82
2022/09/26 07:09:35;;;;;;;11.75;10.73;;;14.30;99.90;;;;;;5054455;28;20229;-82
2022/09/26 07:12:04;;;;;;;10.80;9.90;;;14.30;99.90;;;;;;5054434;28;20262;-84
2022/09/26 07:14:44;;;;;;;14.23;11.05;;;14.40;99.90;;;;;;5054581;28;20216;-84
2022/09/26 07:17:17;;;;;;;12.18;11.02;;;14.50;99.90;;;;;;5054507;28;20206;-84
2022/09/26 07:19:50;;;;;;;10.95;9.93;;;14.60;99.90;;;;;;5054102;28;20233;-84
2022/09/26 07:22:19;;;;;;;11.18;10.13;;;14.60;99.90;;;;;;5054317;28;20255;-84
2022/09/26 07:24:47;;;;;;;11.73;10.63;;;14.70;99.90;;;;;;5054305;28;20201;-84
2022/09/26 07:27:16;;;;;;;11.23;10.10;;;14.80;99.90;;;;;;5054436;28;20210;-85
2022/09/26 07:29:47;;;;;;;12.55;10.90;;;14.90;99.90;;;;;;5053880;28;20241;-84
2022/09/26 07:32:16;;;;;;;11.75;10.60;;;15.10;99.90;;;;;;5054037;28;20212;-85
2022/09/26 07:34:44;;;;;;;11.52;10.50;;;15.10;99.90;;;;;;5054521;28;20205;-84
2022/09/26 07:37:12;;;;;;;11.98;9.55;;;15.20;99.90;;;;;;5054150;28;20364;-85
2022/09/26 07:39:40;;;;;;;10.05;9.10;;;15.30;99.90;;;;;;5053666;28;20236;-84
2022/09/26 07:42:08;;;;;;;10.75;8.05;;;15.40;99.90;;;;;;5053604;28;20229;-84
2022/09/26 07:44:37;;;;;;;9.25;8.35;;;15.40;99.90;;;;;;5053818;28;20213;-84
2022/09/26 07:50:13;;;;;;;9.40;8.50;;;15.30;99.90;;;;;;5053749;28;20232;-85
2022/09/26 07:52:43;;;;;;;8.63;7.93;;;15.40;99.90;;;;;;5053706;28;20233;-85
2022/09/26 07:55:14;;;;;;;9.30;8.02;;;15.40;99.90;;;;;;5053682;28;20202;-84
2022/09/26 07:57:42;;;;;;;8.60;7.80;;;15.30;99.90;;;;;;5053965;28;20218;-84
2022/09/26 08:00:15;;;;;;;8.60;7.90;;;15.20;99.90;;;;;;5053611;28;20233;-85
2022/09/26 08:02:46;;;;;;;8.57;7.88;;;15.20;99.90;;;;;;5053582;28;20226;-84
2022/09/26 08:05:18;;;;;;;8.52;7.70;;;15.20;99.90;;;;;;5053425;28;20212;-84
2022/09/26 08:07:48;;;;;;;7.13;6.53;;;15.40;99.90;;;;;;5053606;28;20209;-84
2022/09/26 08:10:20;;;;;;;9.02;7.72;;;15.50;99.90;;;;;;5053120;28;20227;-85
2022/09/26 08:12:49;;;;;;;6.95;6.30;;;15.70;99.90;;;;;;5053793;28;20285;-85
2022/09/26 08:15:17;;;;;;;7.10;6.50;;;15.80;99.90;;;;;;5053391;28;20222;-84
2022/09/26 08:17:47;;;;;;;10.52;6.80;;;15.80;99.90;;;;;;5053121;28;20208;-85
2022/09/26 08:20:15;;;;;;;10.00;7.72;;;15.90;99.90;;;;;;5053190;28;20230;-85
2022/09/26 08:22:43;;;;;;;7.90;7.20;;;15.90;99.90;;;;;;5053196;28;20225;-84
2022/09/26 08:25:12;;;;;;;7.35;6.78;;;15.80;99.90;;;;;;5053277;28;20205;-84
2022/09/26 08:27:42;;;;;;;8.90;8.07;;;15.80;99.90;;;;;;5053277;28;20201;-84
2022/09/26 08:30:11;;;;;;;18.98;6.65;;;15.80;99.90;;;;;;5052991;28;20310;-85
2022/09/26 08:32:39;;;;;;;7.88;7.22;;;15.70;99.90;;;;;;5053144;28;20275;-85
2022/09/26 08:35:10;;;;;;;8.00;7.20;;;15.60;99.90;;;;;;5053195;28;20212;-85
2022/09/26 08:37:39;;;;;;;8.25;7.45;;;15.60;99.90;;;;;;5053318;28;20243;-85
2022/09/26 08:40:08;;;;;;;8.50;7.82;;;15.70;99.90;;;;;;5052818;28;20221;-85
2022/09/26 08:42:47;;;;;;;8.38;7.57;;;15.80;99.90;;;;;;5052326;28;20309;-84
2022/09/26 08:48:43;;;;;;;7.68;6.95;;;16.00;99.90;;;;;;5052444;28;20216;-85
2022/09/26 08:51:24;;;;;;;7.63;6.90;;;16.10;99.90;;;;;;5053195;28;20210;-85
2022/09/26 08:54:00;;;;;;;6.90;6.28;;;16.00;99.90;;;;;;5052985;28;20201;-85
2022/09/26 08:56:33;;;;;;;7.18;6.38;;;15.90;99.90;;;;;;5052877;28;20209;-85
2022/09/26 08:59:04;;;;;;;6.35;5.75;;;15.90;99.90;;;;;;5052408;28;20240;-85
2022/09/26 09:01:38;;;;;;;6.40;5.80;;;15.90;99.90;;;;;;5052885;28;20210;-85
2022/09/26 09:04:13;;;;;;;7.53;6.78;;;15.90;99.90;;;;;;5052990;28;20220;-85
2022/09/26 09:06:43;;;;;;;6.03;5.53;;;16.00;99.90;;;;;;5052994;28;20243;-85
2022/09/26 09:09:16;;;;;;;10.80;5.57;;;15.90;99.90;;;;;;5052306;28;20229;-85
2022/09/26 09:11:57;;;;;;;5.72;5.22;;;16.10;99.90;;;;;;5052476;28;20213;-85
2022/09/26 09:14:43;;;;;;;6.50;5.90;;;16.20;99.90;;;;;;5052746;28;20213;-85
2022/09/26 09:17:22;;;;;;;6.72;6.13;;;16.20;99.90;;;;;;5054502;28;20224;-86
2022/09/26 09:20:00;;;;;;;5.40;4.97;;;16.40;99.90;;;;;;5058993;28;20233;-85
2022/09/26 09:22:47;;;;;;;6.40;5.82;;;16.50;99.90;;;;;;5058908;28;20300;-85
2022/09/26 09:25:20;;;;;;;5.35;4.90;;;16.50;99.90;;;;;;5059138;28;20212;-85
2022/09/26 09:28:05;;;;;;;5.68;5.10;;;16.50;99.90;;;;;;5059017;28;20201;-84
2022/09/26 09:30:41;;;;;;;5.32;4.82;;;16.90;99.90;;;;;;5058856;28;20241;-85
2022/09/26 09:33:14;;;;;;;4.22;3.92;;;17.40;99.90;;;;;;5059126;28;20197;-85
2022/09/26 09:35:47;;;;;;;4.55;4.15;;;17.80;99.90;;;;;;5059273;28;20209;-85
2022/09/26 09:38:19;;;;;;;4.60;4.18;;;18.30;99.90;;;;;;5058806;28;20205;-85
2022/09/26 09:40:56;;;;;;;4.45;4.05;;;19.00;99.90;;;;;;5058749;28;20209;-85
2022/09/26 09:43:31;;;;;;;4.55;3.95;;;19.60;99.90;;;;;;5058415;28;20229;-85
2022/09/26 09:46:05;;;;;;;3.70;3.40;;;20.30;99.90;;;;;;5059264;28;20212;-85
2022/09/26 09:48:33;;;;;;;3.88;3.58;;;20.60;99.90;;;;;;5058172;28;20229;-85
2022/09/26 09:51:28;;;;;;;2.80;2.60;;;20.50;99.90;;;;;;5058732;28;20210;-85
2022/09/26 09:54:26;;;;;;;3.25;2.95;;;20.20;99.90;;;;;;5059015;28;20202;-85
2022/09/26 09:57:17;;;;;;;2.30;2.20;;;20.40;99.90;;;;;;5045935;28;20213;-85
2022/09/26 10:00:02;;;;;;;2.25;2.15;;;20.90;99.90;;;;;;5058970;28;20233;-85
2022/09/26 10:02:39;;;;;;;2.60;2.40;;;21.00;99.90;;;;;;5058665;28;20221;-85
2022/09/26 10:05:21;;;;;;;3.13;2.85;;;20.90;99.90;;;;;;5058830;28;20243;-85
2022/09/26 10:07:50;;;;;;;1.98;1.88;;;21.20;99.90;;;;;;5058727;28;20220;-85
2022/09/26 10:10:24;;;;;;;2.20;2.10;;;21.50;99.90;;;;;;5058297;28;20272;-85
2022/09/26 10:12:54;;;;;;;2.00;1.90;;;21.90;99.90;;;;;;5058897;28;20208;-85
2022/09/26 10:15:26;;;;;;;2.20;2.05;;;22.50;99.90;;;;;;5058821;28;20229;-85
2022/09/26 10:18:02;;;;;;;2.58;2.40;;;22.70;99.90;;;;;;5058586;28;20216;-85
2022/09/26 10:20:54;;;;;;;2.20;2.10;;;22.60;99.90;;;;;;5058752;28;20210;-85
2022/09/26 10:23:29;;;;;;;2.35;2.17;;;21.80;99.90;;;;;;5058476;28;20226;-86
2022/09/26 10:26:02;;;;;;;2.13;2.03;;;20.90;99.90;;;;;;5058781;28;20212;-86
2022/09/26 10:28:36;;;;;;;2.03;1.92;;;20.30;99.90;;;;;;5056787;28;20210;-85
2022/09/26 10:31:08;;;;;;;2.63;1.98;;;19.80;99.90;;;;;;5055232;28;20226;-85
2022/09/26 10:33:43;;;;;;;2.33;2.13;;;19.60;99.90;;;;;;5055496;28;20205;-85
2022/09/26 10:36:19;;;;;;;2.15;1.98;;;19.40;99.90;;;;;;5055496;28;20201;-84
2022/09/26 10:41:44;;;;;;;2.10;2.00;;;19.60;99.90;;;;;;5055136;28;20217;-84
2022/09/26 10:44:24;;;;;;;2.17;1.98;;;20.00;99.90;;;;;;5054570;28;20220;-85
2022/09/26 10:46:56;;;;;;;1.90;1.80;;;20.60;99.90;;;;;;5055307;28;20212;-85
2022/09/26 10:49:31;;;;;;;2.33;2.13;;;21.30;99.90;;;;;;5054663;28;20221;-85
2022/09/26 10:52:08;;;;;;;1.88;1.77;;;21.90;99.90;;;;;;5054960;28;20206;-85
2022/09/26 10:54:45;;;;;;;2.05;1.95;;;22.30;99.90;;;;;;5055096;28;20232;-85
2022/09/26 10:57:26;;;;;;;1.90;1.80;;;22.60;99.90;;;;;;5055018;28;20202;-85
2022/09/26 10:59:57;;;;;;;3.15;2.70;;;22.40;99.90;;;;;;5054553;28;20226;-85
2022/09/26 11:02:27;;;;;;;1.95;1.85;;;22.20;99.90;;;;;;5055158;28;20209;-85
2022/09/26 11:07:48;;;;;;;1.92;1.83;;;21.90;99.90;;;;;;5055141;28;20206;-85
2022/09/26 11:10:24;;;;;;;1.95;1.85;;;21.60;99.90;;;;;;5054556;28;20229;-85
2022/09/26 11:13:00;;;;;;;1.90;1.80;;;21.30;99.90;;;;;;5054677;28;20209;-85
2022/09/26 11:15:28;;;;;;;1.60;1.60;;;21.10;99.90;;;;;;5054756;28;20213;-85
2022/09/26 11:17:57;;;;;;;3.13;2.03;;;20.80;99.90;;;;;;5054210;28;20201;-86
2022/09/26 11:20:45;;;;;;;1.90;1.80;;;20.40;99.90;;;;;;5054608;28;20221;-85
2022/09/26 11:23:23;;;;;;;1.75;1.65;;;20.20;99.90;;;;;;5054533;28;20232;-86
2022/09/26 11:26:00;;;;;;;2.20;2.00;;;20.10;99.90;;;;;;5054553;28;20205;-87
2022/09/26 11:28:35;;;;;;;1.98;1.88;;;20.30;99.90;;;;;;5054279;28;20209;-85
2022/09/26 11:31:08;;;;;;;1.90;1.60;;;20.80;99.90;;;;;;5054391;28;20220;-85
2022/09/26 11:33:44;;;;;;;1.58;1.50;;;20.90;99.90;;;;;;5054441;28;20206;-85
2022/09/26 11:36:38;;;;;;;1.90;1.73;;;21.00;99.90;;;;;;5054399;28;20212;-85
2022/09/26 11:39:23;;;;;;;1.60;1.48;;;21.10;99.90;;;;;;5053760;28;20233;-86
2022/09/26 11:42:06;;;;;;;1.98;1.80;;;20.60;99.90;;;;;;5053610;28;20221;-86
2022/09/26 11:44:54;;;;;;;1.92;1.83;;;20.40;99.90;;;;;;5053450;28;20233;-85
2022/09/26 11:47:49;;;;;;;2.08;1.70;;;20.30;99.90;;;;;;5054020;28;20214;-85
2022/09/26 11:50:34;;;;;;;1.67;1.52;;;20.40;99.90;;;;;;5053505;28;20233;-85
2022/09/26 11:53:23;;;;;;;1.85;1.75;;;20.40;99.90;;;;;;5054039;28;20210;-85
2022/09/26 11:56:07;;;;;;;1.70;1.60;;;20.60;99.90;;;;;;5051361;28;20217;-86
2022/09/26 11:58:43;;;;;;;2.00;1.90;;;20.60;99.90;;;;;;5053621;28;20225;-86
2022/09/26 12:01:26;;;;;;;1.80;1.65;;;20.60;99.90;;;;;;5053827;28;20212;-86
2022/09/26 12:04:14;;;;;;;1.67;1.48;;;20.60;99.90;;;;;;5053484;28;20238;-86
2022/09/26 12:06:52;;;;;;;2.38;2.17;;;20.10;99.90;;;;;;5053630;28;20220;-85
2022/09/26 12:09:43;;;;;;;2.00;1.90;;;20.00;99.90;;;;;;5053303;28;20225;-85
2022/09/26 12:12:18;;;;;;;1.77;1.67;;;20.00;99.90;;;;;;5053655;28;20217;-86
2022/09/26 12:15:14;;;;;;;2.20;2.00;;;20.00;99.90;;;;;;5053394;28;20208;-86
2022/09/26 12:17:58;;;;;;;2.03;1.92;;;19.70;99.90;;;;;;5053326;28;20217;-85
2022/09/26 12:20:37;;;;;;;2.83;2.35;;;19.40;99.90;;;;;;5053326;28;20225;-85
2022/09/26 12:23:16;;;;;;;2.53;2.00;;;19.30;99.90;;;;;;5053588;28;20209;-80
2022/09/26 12:26:00;;;;;;;1.98;1.88;;;19.30;99.90;;;;;;5053493;28;20213;-81
2022/09/26 12:28:51;;;;;;;2.03;1.90;;;19.00;99.90;;;;;;5053157;28;20214;-80
2022/09/26 12:31:30;;;;;;;2.13;1.92;;;18.90;99.90;;;;;;5050048;28;20205;-80
2022/09/26 12:34:16;;;;;;;2.53;2.30;;;18.70;99.90;;;;;;5053274;28;20201;-81
2022/09/26 12:37:00;;;;;;;1.60;1.50;;;18.60;99.90;;;;;;5053102;28;20220;-80
2022/09/26 12:39:49;;;;;;;2.50;2.30;;;18.80;99.90;;;;;;5053421;28;20229;-80
2022/09/26 12:42:36;;;;;;;2.65;1.77;;;19.00;99.90;;;;;;5052508;28;20206;-81
2022/09/26 12:45:29;;;;;;;2.10;1.90;;;18.90;99.90;;;;;;5052821;28;20221;-81
2022/09/26 12:48:18;;;;;;;2.33;2.13;;;18.90;99.90;;;;;;5053100;28;20209;-80
2022/09/26 12:51:01;;;;;;;4.05;1.98;;;18.90;99.90;;;;;;5052614;28;20206;-80
2022/09/26 12:54:08;;;;;;;1.67;1.63;;;18.80;99.90;;;;;;5052375;28;20240;-80
2022/09/26 12:56:48;;;;;;;2.05;1.90;;;18.80;99.90;;;;;;5007015;28;20217;-80
2022/09/26 12:59:33;;;;;;;2.63;2.42;;;19.00;99.90;;;;;;5052487;28;20225;-82
2022/09/26 13:02:31;;;;;;;3.90;2.28;;;19.00;99.90;;;;;;5052836;28;20217;-81
2022/09/26 13:05:23;;;;;;;2.03;1.92;;;19.10;99.90;;;;;;5052336;28;20244;-80
2022/09/26 13:08:03;;;;;;;2.50;2.30;;;19.30;99.90;;;;;;5052884;28;20210;-81
2022/09/26 13:10:41;;;;;;;1.80;1.70;;;19.50;99.90;;;;;;5052550;28;20319;-80
2022/09/26 13:13:49;;;;;;;2.92;2.40;;;19.90;99.90;;;;;;5052541;28;20213;-82
2022/09/26 13:16:32;;;;;;;2.38;2.08;;;20.30;99.90;;;;;;5052521;28;20202;-80
2022/09/26 13:19:12;;;;;;;2.60;2.22;;;20.60;99.90;;;;;;5052273;28;20227;-80
2022/09/26 13:21:44;;;;;;;2.13;1.92;;;20.60;99.90;;;;;;5052613;28;20209;-81
2022/09/26 13:24:21;;;;;;;2.28;1.70;;;20.90;99.90;;;;;;5052716;28;20226;-80
2022/09/26 13:26:53;;;;;;;1.95;1.85;;;21.20;99.90;;;;;;5052584;28;20205;-81
2022/09/26 13:29:26;;;;;;;2.15;1.95;;;21.10;99.90;;;;;;5051949;28;20224;-81
2022/09/26 13:32:04;;;;;;;2.20;2.00;;;21.10;99.90;;;;;;5052646;28;20209;-81
2022/09/26 13:34:39;;;;;;;2.15;1.95;;;21.20;99.90;;;;;;5052389;28;20216;-80
2022/09/26 13:37:16;;;;;;;1.90;1.80;;;21.20;99.90;;;;;;5052756;28;20212;-81